KPIB/PIB METAR and TAF weather

Enter ICAO airport designator
Station Type Date Time Source
KPIB METAR 2023/02/05 12:56 UTC NOAA

KPIB 051256Z AUTO 00000KT 9SM BKN055 05/05 A3031 RMK AO2 SLP265 T00500050


Station Type Date Time Source
KPIB Decoded METAR 2023/02/05 12:56 UTC NOAA

Hattiesburg/Laurel, Hattiesburg-Laurel Regional Airport, MS, United States (KPIB) 31-28N 089-20W
Feb 05, 2023 - 07:56 AM EST / 2023.02.05 1256 UTC
Wind: Calm:0
Visibility: 9 mile(s):0
Sky conditions: mostly cloudy
Temperature: 41.0 F (5.0 C)
Dew Point: 41.0 F (5.0 C)
Relative Humidity: 100%
Pressure (altimeter): 30.31 in. Hg (1026 hPa)
ob: KPIB 051256Z AUTO 00000KT 9SM BKN055 05/05 A3031 RMK AO2 SLP265 T00500050
cycle: 13

Station Type Date Time Source
KPIB TAF 2023/02/05 12:58 UTC NOAA

TAF KPIB 051158Z 0512/0612 24004KT P6SM BKN050

Example: see airport list